Tipton Airport
KFME : now visible

Airfield :











YOU CAN JOIN US ON...

 
LOGIN :

Register | Disclaimer

   EN    FR    IT 

 









Legend :    VFR   Marginal VFR   IFR   Intensive IFR   Very Intensive IFR
Visi :
Ceiling :
>= 8 km
>= 3000ft
5 to 8 km
1000 to 3000 ft
1500m to 5 km
500 to 1000 ft
800 to 1500m
200 to 500 ft
< 800m
< 200 ft
Symbols :   Thunderstorms  Fog  Heavy snow  Heavy precipitations  Wind > 20 kt






- Airport Elevation : 150 ft


KFME - Tipton

CURRENT METAR :
  • 271609Z AUTO 18008KT 10SM BKN028 BKN035 23/21 A2978 RMK AO1

EXPIRED METARs :
  • 271549Z AUTO 17003KT 10SM OVC030 22/20 A2980 RMK AO1
  • 271529Z AUTO 17006KT 2SM BKN030 OVC038 21/20 A2981 RMK AO1 VIS 1/2V5
  • 271509Z AUTO 18007KT 10SM OVC047 23/19 A2982 RMK AO1
  • 271449Z AUTO 16003KT 10SM BKN047 OVC110 23/20 A2981 RMK AO1
  • 271429Z AUTO 17005KT 10SM SCT110 23/20 A2980 RMK AO1
  • 271409Z AUTO 16004KT 10SM SCT110 23/20 A2980 RMK AO1
  • 271349Z AUTO 19003KT 10SM SCT050 SCT070 23/20 A2980 RMK AO1
  • 271329Z AUTO 18003KT 10SM BKN048 BKN060 22/20 A2981 RMK AO1
  • 271309Z AUTO 20003KT 10SM SCT046 SCT055 SCT065 22/19 A2982 RMK AO1
  • 271249Z AUTO 18003KT 10SM SCT050 SCT065 22/20 A2982 RMK AO1
  • 271229Z AUTO 17003KT 10SM SCT050 SCT065 SCT075 21/19 A2982 RMK AO1
  • 271149Z AUTO 00000KT 10SM CLR 20/20 A2984 RMK AO1
  • 271129Z AUTO 00000KT 10SM CLR 20/20 A2984 RMK AO1

TAF N/A
KZDC FIR / North America



MET'MAP, your aeronautical weather chart ! - Copyright ORBIFLY December 2007 - Disclaimer

ORBIFLY MET'MAP TEAM :

Programming & Development : Alexandra Zaïnal
Original concept : Baudouin d'Aumeries
Technical & hardware support : Manuel Goepfert
Assistance : Marc-Olivier Méhu




SOURCES & CREDITS :

   NOAA       Earth
Advisory